-> Other stations

1455

Speed(max): 6.5(9.2)knots
Direction:226° ( SW)
Temperature: 32.1°C
Arrived: 2026-08-31 17:23:08 CEST

Past data:
hh:mmknots
Dir (°)
°C
17:21 7.6 11.3 W(263) 31.8
17:19 6.5 8.6 W(268) 32.1
17:17 5.9 8.6 W(265) 32.6
17:15 5.9 8.1 W(259) 32.5
17:13 6.5 8.1 SW(234) 32.6
17:11 6.5 10.3 SW(221) 32.6
17:09 7 10.3 SW(229) 32.7
17:07 5.9 8.6 SW(225) 32.7
17:05 5.9 8.1 WSW(253) 32.8
17:03 5.9 8.6 SW(224) 33.0
17:01 5.9 8.6 SW(235) 32.8
16:59 5.4 8.6 WSW(242) 33.0
16:57 5.4 8.1 SW(219) 33.0
16:55 7 10.3 WSW(243) 32.7
15 min. averages:
hh:mmknots
Dir (°)
°C
17:15 6.5 10.3 SW(232) 32.7
17:00 5.9 10.3 SW(234) 32.9
16:45 5.4 10.8 WSW(239) 33.1
16:30 5.9 9.2 WSW(255) 32.6
16:15 5.9 9.2 WSW(257) 32.1
16:00 7.6 11.9 SW(231) 31.7
15:45 6.5 10.3 WSW(250) 32.0
15:30 6.5 11.3 WSW(240) 32.0
15:15 5.4 9.2 SW(233) 32.3
15:00 5.9 10.8 SW(222) 32.3
14:45 5.9 10.3 SSW(209) 32.4
14:30 5.4 9.2 SW(225) 32.6
14:15 6.5 10.8 SW(233) 32.1
14:00 7 11.9 WSW(237) 31.8
13:45 7 11.9 WSW(237) 31.9
Stations at HR:
1455
-> Other regions

Desktop view
Data provided by Holfuy.
© Holfuy Weather 2026